Other Surface Observations
Issued by NWS Great Falls, MT

Home | Current Version | Previous Version | Text Only | Print | Product List | Glossary On
Versions: 1 2 3 4 5 6 7 8 9 10 11 12 13 14 15 16 17 18 19 20 21 22 23 24 25 26 27 28 29 30 31 32 33 34 35 36 37 38 39 40 41 42 43 44 45 46 47 48 49 50
000
SXUS55 KTFX 040755
OSOTFX
AREA AWOS OBSERVATIONS
NATIONAL WEATHER SERVICE GREAT FALLS MT
0150 AM MDT FRI SEP 04 2015

METAR KPWD 040745Z AUTO 01018G27KT 10SM 14/08 A2981 RMK PLENTYWOOD
METAR KPO1 040745Z AUTO 01009KT 10SM 16/08 A2986 RMK POPLAR
METAR K1S3 040745Z AUTO 31004KT 10SM 16/11 A2978 RMK FORSYTH
METAR KS71 040745Z AUTO 30003KT 10SM 11/08 A2999 RMK CHINOOK
METAR K79S 040745Z AUTO 24004KT 10SM 11/10 A3001 RMK FORT BENTON
METAR K38S 040745Z AUTO 00000KT 10SM 07/07 A3002 RMK DEER LODGE
METAR K3U3 040745Z AUTO 00000KT 07/06 A3000 RMK ANACONDA
METAR K6S5 040745Z AUTO 03002KT 10SM 09/08 A2996 RMK HAMILTON
METAR KS59 040745Z AUTO 00000KT 10SM 09/06 A2998 RMK LIBBY
METAR K88M 040745Z AUTO 29004KT 10SM 09/06 A3000 RMK EUREKA



USA.gov is the U.S. government's official web portal to all federal, state and local government web resources and services.